logo
App data

Blacklight: Tango Down

In Blacklight: Tango Down, experience the bleeding edge of advanced warfare. Participate in the “NetWar”: a hyper-realistic battlefield letting you fight tomorrow’s conflicts with or against your friends in the gritty Blacklight universe.
Store | Hub | SteamDB | Site
Developer: Zombie Studios Publisher: Ignition Entertainment
Genre: Action
Languages: English
Tags: Action (44), FPS (14), Multiplayer (14), First-Person (13), Shooter (12), Co-op (5), Singleplayer (5)
Category: Single-player, Multi-player, Co-op, Partial Controller Support
Release date: Jul 14, 2010
Price: $0.99
Old userscore: 38% Metascore: 65%
Owners: 50,000 .. 100,000
Followers: 396
Peak concurrent players yesterday: 2
YouTube stats: 83 views and 5 comments for top 50 videos uploaded last week, 0 new videos uploaded yesterday.
Playtime total: 01:36 (average) 01:36 (median)

Steam Spy is still in beta, so expect major bugs.

Owners data:

Access restricted.

This feature is only available to users with special access rights. Sorry.

If you want to proceed, you need to register or log in first and then back Steam Spy on Patreon. Look for Indie or Pro pledge.

Don't forget to use the same email as on Steam Spy!

Audience in 2 weeks:

Access restricted.

This feature is only available to users with special access rights. Sorry.

If you want to proceed, you need to register or log in first and then back Steam Spy on Patreon. Look for Indie or Pro pledge.

Don't forget to use the same email as on Steam Spy!

Peak daily concurrent players:

CCU data courtesy of SteamDB. Used with permission.

Hourly concurrent players:

Daily Twitch stats:

Hourly Twitch stats:

Followers over time

Access restricted.

This feature is only available to users with special access rights. Sorry.

If you want to proceed, you need to register or log in first and then back Steam Spy on Patreon. Look for Indie or Pro pledge.

Don't forget to use the same email as on Steam Spy!

Views for top 50 videos on YouTube for this game:

Games similar to this one:

# Game Release date
Price
Score rank
(Userscore / Metascore)
Owners
Players
Playtime (Median)
1 Cold War Sep 27, 2005 $4.99N/A (N/A/64%)20,000 .. 50,0000%00:00 (00:00)
2 The Apogee Throwback Pack Jul 1, 2013 $9.99N/A (N/A)100,000 .. 200,0000%00:00 (00:00)
3 Zombeer Jan 30, 2015 $4.99N/A (N/A/32%)20,000 .. 50,0000%00:00 (00:00)
4 Guncraft Aug 9, 2013 $14.99N/A (N/A/73%)100,000 .. 200,0000%00:00 (00:00)
5 BlackSoul: Extended Edition Feb 26, 2014 $3.99N/A (N/A)200,000 .. 500,0000%00:00 (00:00)
6 The Chaos Engine Aug 29, 2013 $9.99N/A (N/A/40%)50,000 .. 100,0000%00:00 (00:00)
7 GIGANTIC ARMY Mar 6, 2014 $5.99N/A (N/A)50,000 .. 100,0000%00:00 (00:00)
8 Blood Omen 2: Legacy of Kain Mar 29, 2002 $6.99N/A (N/A)200,000 .. 500,0000%00:00 (00:00)
9 Eterium Apr 15, 2014 $4.99N/A (N/A)100,000 .. 200,0000%00:00 (00:00)
10 Disney Epic Mickey 2: The Power of Two Nov 18, 2012 $19.99N/A (N/A)20,000 .. 50,0000%00:00 (00:00)
11 Explodemon Nov 3, 2011 $8.99N/A (N/A)20,000 .. 50,0000%00:00 (00:00)
12 Strike Vector Jan 28, 2014 $11.99N/A (N/A/73%)100,000 .. 200,0000%00:00 (00:00)
13 LocoCycle Feb 14, 2014 $9.99N/A (N/A)0 .. 20,0000%00:00 (00:00)
14 YAIBA: NINJA GAIDEN Z Mar 21, 2014 $29.99N/A (N/A/49%)20,000 .. 50,0000%00:00 (00:00)
15 Thunder Wolves May 15, 2013 $9.99N/A (N/A/69%)100,000 .. 200,0000%00:00 (00:00)
16 Hot Tin Roof: The Cat That Wore A Fedora Feb 20, 2015 $14.99N/A (N/A/66%)100,000 .. 200,0000%00:00 (00:00)
17 Strike Suit Infinity Apr 30, 2013 $6.99N/A (N/A/66%)100,000 .. 200,0000%00:00 (00:00)
18 Painkiller Overdose Oct 30, 2007 $4.99N/A (N/A/65%)200,000 .. 500,0000%00:00 (00:00)
19 Unreal 2: The Awakening Feb 3, 2003 $14.99N/A (N/A/75%)200,000 .. 500,0000%00:00 (00:00)
20 Project: Snowblind Feb 22, 2005 $5.99N/A (N/A/76%)100,000 .. 200,0000%00:00 (00:00)
21 Prince of Persia: Warrior Within Nov 30, 2004 $9.99N/A (N/A/83%)200,000 .. 500,0000%00:00 (00:00)
22 Conflict: Denied Ops Feb 8, 2008 $5.99N/A (N/A/58%)50,000 .. 100,0000%00:00 (00:00)
23 Prince of Persia: The Two Thrones Dec 7, 2005 $9.99N/A (N/A/85%)200,000 .. 500,0000%00:00 (00:00)
24 QUAKE Mission Pack 1: Scourge of Armagon Feb 28, 1997 $2.99N/A (N/A)50,000 .. 100,0000%00:00 (00:00)
25 Tom Clancy's Rainbow Six Vegas Dec 12, 2006 $9.99N/A (N/A/85%)100,000 .. 200,0000%00:00 (00:00)
26 Frontlines: Fuel of War Feb 27, 2008 $19.99N/A (N/A/73%)200,000 .. 500,0000%00:00 (00:00)
27 Tom Clancy's Ghost Recon Desert Siege Mar 26, 2002 $4.99N/A (N/A/82%)100,000 .. 200,0000%00:00 (00:00)
28 Aces of the Galaxy Jun 4, 2008 $9.99N/A (N/A)0 .. 20,0000%00:00 (00:00)
29 Tom Clancy's Rainbow Six Lockdown Feb 14, 2006 $9.99N/A (N/A/59%)50,000 .. 100,0000%00:00 (00:00)
30 TimeShift Oct 30, 2007 $19.99N/A (N/A/71%)100,000 .. 200,0000%00:00 (00:00)
31 The Ship: Single Player Nov 20, 2006 $9.99N/A (N/A)100,000 .. 200,0001.16%02:08 (00:42)
32 Larva Mortus Mar 19, 2009 $4.99N/A (N/A/64%)100,000 .. 200,0000%00:00 (00:00)
33 Alpha Prime Nov 7, 2007 $4.99N/A (N/A/59%)200,000 .. 500,0000%00:00 (00:00)
34 Damnation May 22, 2009 $9.99N/A (N/A/41%)50,000 .. 100,0000%00:00 (00:00)
35 El Matador Sep 25, 2006 $3.99N/A (N/A/54%)20,000 .. 50,0000%00:00 (00:00)
36 Disney Alice in Wonderland Mar 2, 2010 $19.99N/A (N/A/63%)0 .. 20,0000%00:00 (00:00)
37 Elliot Quest Nov 10, 2014 $9.99N/A (N/A)20,000 .. 50,0000%00:00 (00:00)
38 Disney G-Force Jul 21, 2009 $19.99N/A (N/A/61%)0 .. 20,0000%00:00 (00:00)
39 Kraven Manor Sep 26, 2014 FreeN/A (N/A/58%)100,000 .. 200,0000%00:00 (00:00)
40 Raiden IV: OverKill Sep 3, 2015 $14.99N/A (N/A)20,000 .. 50,0000%00:00 (00:00)
41 Beyond Space Remastered Edition Jun 16, 2014 $4.99N/A (N/A)20,000 .. 50,0000%00:00 (00:00)
42 Deer Hunt Legends Jan 7, 2013 $4.99N/A (N/A)0 .. 20,0000%00:00 (00:00)
43 Chernobyl Commando Mar 8, 2013 $9.99N/A (N/A)50,000 .. 100,0000%00:00 (00:00)
44 Insanity's Blade Dec 5, 2014 $5.99N/A (N/A)20,000 .. 50,0000%00:00 (00:00)
45 Manhunter Jan 29, 2013 $4.99N/A (N/A)100,000 .. 200,0000%00:00 (00:00)
46 Raptor: Call of The Shadows - 2015 Edition Apr 1, 1994 $4.99N/A (N/A)50,000 .. 100,0000%00:00 (00:00)
47 The Way May 20, 2016 $14.99N/A (N/A/67%)100,000 .. 200,0000%00:00 (00:00)
48 House of the Dying Sun Nov 1, 2016 $6.79N/A (N/A/76%)50,000 .. 100,0000%00:00 (00:00)
49 OCEAN CITY RACING: Redux Aug 27, 2016 $1.99N/A (N/A)50,000 .. 100,0000%00:00 (00:00)
50 Project Root May 1, 2014 $9.99N/A (N/A)20,000 .. 50,0000%00:00 (00:00)
51 Vertical Drop Heroes HD Jul 25, 2014 $6.99N/A (N/A/70%)100,000 .. 200,0000%00:00 (00:00)
52 Stargunner Nov 19, 1996 FreeN/A (N/A)0 .. 20,0000%00:00 (00:00)
53 Glass Wing Jun 24, 2015 FreeN/A (N/A)50,000 .. 100,0000%00:00 (00:00)
54 Rise of the Triad: Dark War Dec 21, 1994 $6.99N/A (N/A)20,000 .. 50,0000%00:00 (00:00)
55 Zanzarah: The Hidden Portal Aug 20, 2015 $7.99N/A (N/A)100,000 .. 200,0000%00:00 (00:00)
56 Mega Man Legacy Collection / ロックマン クラシックス コレクション Aug 24, 2015 $14.99N/A (N/A/85%)100,000 .. 200,0000%00:00 (00:00)
57 Mighty Gunvolt Sep 29, 2015 $4.99N/A (N/A)20,000 .. 50,0000%00:00 (00:00)
58 METAL SLUG 2 Apr 14, 2016 $6.99N/A (N/A)50,000 .. 100,0000%00:00 (00:00)
59 Little Big Adventure - Enhanced Edition Oct 14, 1994 $5.99N/A (N/A)20,000 .. 50,0000%00:00 (00:00)
60 SHOCK TROOPERS May 18, 2016 $7.99N/A (N/A)20,000 .. 50,0000%00:00 (00:00)
61 Black & White Bushido Oct 2, 2015 $12.99N/A (N/A)20,000 .. 50,0000%00:00 (00:00)
62 Super Mutant Alien Assault Aug 20, 2015 $9.99N/A (N/A)0 .. 20,0000%00:00 (00:00)
63 Code of Princess Apr 14, 2016 $14.99N/A (N/A/53%)20,000 .. 50,0000%00:00 (00:00)
64 Grey Cubes May 15, 2015 N/AN/A (N/A)20,000 .. 50,0000%00:00 (00:00)
65 On My Own Feb 26, 2016 $4.99N/A (N/A)0 .. 20,0000%00:00 (00:00)
66 Kung Fury: Street Rage May 28, 2015 N/AN/A (N/A)100,000 .. 200,00011.11%00:02 (00:00)
67 Hocus Pocus Jun 1, 1994 $4.99N/A (N/A)0 .. 20,0000%00:00 (00:00)
68 Cruel Arena Aug 18, 2015 $0.99N/A (N/A)200,000 .. 500,0000%00:00 (00:00)
69 Sam & Max 301: The Penal Zone Coming Soon $19.99N/A (N/A)0 .. 20,0000%00:00 (00:00)
70 Watchmen: The End is Nigh Mar 4, 2009 $4.99N/A (N/A/61%)20,000 .. 50,0000%00:00 (00:00)
71 Iron Grip: Warlord Dec 5, 2008 N/AN/A (N/A/59%)100,000 .. 200,0000%00:00 (00:00)
72 Watchmen: The End is Nigh Part 2 Jul 29, 2009 $4.99N/A (N/A/44%)20,000 .. 50,0000%00:00 (00:00)
73 Delta Force: Black Hawk Down Mar 24, 2003 $14.99N/A (N/A/77%)200,000 .. 500,0000%00:00 (00:00)
74 Bionic Commando Jul 28, 2009 $9.99N/A (N/A/69%)200,000 .. 500,0000%00:00 (00:00)
75 Alien Shooter Sep 15, 2003 $4.99N/A (N/A)200,000 .. 500,0000%00:00 (00:00)
76 Bionic Commando: Rearmed Aug 14, 2008 $9.99N/A (N/A/86%)200,000 .. 500,0000%00:00 (00:00)
77 Alien Shooter: Revisited Apr 15, 2009 $4.99N/A (N/A)200,000 .. 500,0000%00:00 (00:00)
78 Alien Breed: Impact Jun 3, 2010 $9.99N/A (N/A/64%)200,000 .. 500,0000%00:00 (00:00)
79 Zombie Shooter Dec 29, 2007 $4.99N/A (N/A)100,000 .. 200,0000%00:00 (00:00)
80 Alien Breed 2: Assault Sep 22, 2010 $9.99N/A (N/A/63%)200,000 .. 500,0000%00:00 (00:00)
81 Rayman Raving Rabbids Mar 27, 2007 $9.99N/A (N/A/58%)20,000 .. 50,0000%00:00 (00:00)
82 Twin Sector Sep 16, 2009 $4.99N/A (N/A)50,000 .. 100,0000%00:00 (00:00)
83 Legendary Dec 1, 2008 $1.99N/A (N/A/50%)200,000 .. 500,0000%00:00 (00:00)
84 Dead Horde Jul 27, 2011 $5.99N/A (N/A)50,000 .. 100,0000%00:00 (00:00)
85 Prince of Persia Dec 10, 2008 $9.99N/A (N/A/82%)200,000 .. 500,0000%00:00 (00:00)
86 Versus: Battle of the Gladiator Aug 26, 2016 N/AN/A (N/A)50,000 .. 100,0000%00:00 (00:00)
87 STAR WARS SHADOWS OF THE EMPIRE Sep 17, 1997 $5.99N/A (N/A)200,000 .. 500,0000%00:00 (00:00)
88 Phantaruk Aug 16, 2016 $4.99N/A (N/A/53%)20,000 .. 50,0000%00:00 (00:00)
89 PLANETS OF WAR Jun 30, 2017 $1.99N/A (N/A)0 .. 20,0000%00:00 (00:00)
90 Yomawari: Night Alone Oct 25, 2016 $19.99N/A (N/A)20,000 .. 50,0000%00:00 (00:00)
91 Deformers Apr 20, 2017 N/AN/A (N/A)20,000 .. 50,0000%00:00 (00:00)
92 Scrap Garden - The Day Before Oct 7, 2016 FreeN/A (N/A)100,000 .. 200,0000%00:00 (00:00)
93 THOTH Oct 7, 2016 $4.99N/A (N/A)50,000 .. 100,0000%00:00 (00:00)
94 Unbox: Newbie's Adventure Sep 5, 2016 $3.99N/A (N/A/68%)50,000 .. 100,0000%00:00 (00:00)
95 Spell Fighter VR Mar 1, 2016 FreeN/A (N/A)100,000 .. 200,0000%00:00 (00:00)
96 Overkill VR: Action Shooter FPS Nov 16, 2016 $19.99N/A (N/A)20,000 .. 50,0000%00:00 (00:00)
97 Zenodyne R May 29, 2016 $9.99N/A (N/A)0 .. 20,0000%00:00 (00:00)
98 Deus Ex: Breach Jan 24, 2017 FreeN/A (N/A)50,000 .. 100,0000%00:00 (00:00)
99 The First Templar - Steam Special Edition May 12, 2011 $9.99N/A (N/A/57%)100,000 .. 200,0000%00:00 (00:00)
100 Foreign Legion: Buckets of Blood Aug 4, 2009 $4.99N/A (N/A)50,000 .. 100,0000%00:00 (00:00)
101 Painkiller Redemption Feb 25, 2011 $4.99N/A (N/A/43%)200,000 .. 500,0000%00:00 (00:00)
102 Painkiller: Resurrection Oct 27, 2009 $9.99N/A (N/A/38%)100,000 .. 200,0000%00:00 (00:00)
103 Xotic Sep 16, 2011 $9.99N/A (N/A/67%)50,000 .. 100,0000%00:00 (00:00)
104 AquaNox Nov 30, 2001 $4.99N/A (N/A/67%)100,000 .. 200,0000%00:00 (00:00)
105 Capsized Apr 29, 2011 $9.99N/A (N/A/80%)200,000 .. 500,0000%00:00 (00:00)
106 AquaNox 2: Revelation Aug 19, 2003 $4.99N/A (N/A/59%)50,000 .. 100,0000%00:00 (00:00)
107 Garshasp: The Monster Slayer May 9, 2011 $4.99N/A (N/A/49%)50,000 .. 100,0000%00:00 (00:00)
108 Chaser Aug 22, 2003 $4.99N/A (N/A/66%)100,000 .. 200,0000%00:00 (00:00)
109 Garshasp: Temple of the Dragon Sep 24, 2012 $4.99N/A (N/A)20,000 .. 50,0000%00:00 (00:00)
110 DogFighter Jun 14, 2010 $2.99N/A (N/A)200,000 .. 500,0000%00:00 (00:00)
111 Zombie Shooter 2 Sep 23, 2009 $9.99N/A (N/A)100,000 .. 200,0000%00:00 (00:00)
112 Wasteland Angel Sep 1, 2011 $0.99N/A (N/A)100,000 .. 200,0000%00:00 (00:00)
113 SEGA Mega Drive and Genesis Classics Jun 1, 2010 $29.99N/A (N/A)500,000 .. 1,000,0000%00:00 (00:00)
114 Plain Sight Apr 5, 2010 $4.99N/A (N/A/76%)50,000 .. 100,0000%00:00 (00:00)
115 Project Freedom Oct 14, 2009 $2.99N/A (N/A)20,000 .. 50,0000%00:00 (00:00)
116 Kung Fu Strike - The Warrior's Rise Jul 24, 2012 $9.99N/A (N/A)100,000 .. 200,0000%00:00 (00:00)
117 Serious Sam Double D XXL Aug 30, 2011 $9.99N/A (N/A)200,000 .. 500,0000%00:00 (00:00)
118 Intrusion 2 Sep 11, 2012 $9.99N/A (N/A/80%)200,000 .. 500,0000%00:00 (00:00)
119 Global Ops: Commando Libya Oct 26, 2011 $4.99N/A (N/A/37%)50,000 .. 100,0000%00:00 (00:00)
120 Karateka Dec 3, 2012 $3.99N/A (N/A/48%)50,000 .. 100,0000%00:00 (00:00)
121 Choplifter HD Jan 11, 2012 N/AN/A (N/A/65%)50,000 .. 100,0000%00:00 (00:00)
122 iBomber Attack Nov 1, 2012 $5.99N/A (N/A)20,000 .. 50,0000%00:00 (00:00)
123 Sonic the Hedgehog 4 - Episode II May 15, 2012 $9.99N/A (N/A/54%)100,000 .. 200,0000%00:00 (00:00)
124 NiGHTS Into Dreams Dec 17, 2012 $7.99N/A (N/A)200,000 .. 500,0000%00:00 (00:00)
125 Painkiller: Recurring Evil Feb 29, 2012 $9.99N/A (N/A/38%)50,000 .. 100,0000%00:00 (00:00)
126 Miner Wars 2081 Nov 28, 2012 $4.99N/A (N/A/52%)50,000 .. 100,0000%00:00 (00:00)
127 Noitu Love 2: Devolution Apr 23, 2012 $4.99N/A (N/A/80%)50,000 .. 100,0000%00:00 (00:00)
128 Warp Mar 21, 2012 $9.99N/A (N/A)20,000 .. 50,0000%00:00 (00:00)
129 Sacred Citadel Apr 16, 2013 $9.99N/A (N/A/61%)200,000 .. 500,0000%00:00 (00:00)
130 Alien Zombie Megadeath Oct 18, 2011 $4.99N/A (N/A)20,000 .. 50,0000%00:00 (00:00)
131 Blades of Time Apr 20, 2012 $9.99N/A (N/A/63%)200,000 .. 500,0000%00:00 (00:00)
132 Bunch of Heroes Sep 21, 2011 $4.99N/A (N/A)100,000 .. 200,0000%00:00 (00:00)

Tags over time:

Access restricted.

This feature is only available to users with special access rights. Sorry.

If you want to proceed, you need to register or log in first and then back Steam Spy on Patreon. Look for Indie or Pro pledge.

Don't forget to use the same email as on Steam Spy!

Owners of this game also own:

Access restricted.

This feature is only available to users with special access rights. Sorry.

If you want to proceed, you need to register or log in first and then back Steam Spy on Patreon. Look for Indie or Pro pledge.

Don't forget to use the same email as on Steam Spy!

Playtime distribution:

Access restricted.

This feature is only available to users with special access rights. Sorry.

If you want to proceed, you need to register or log in first and then back Steam Spy on Patreon. Look for Indie or Pro pledge.

Don't forget to use the same email as on Steam Spy!

Playtime (2 weeks):

Access restricted.

This feature is only available to users with special access rights. Sorry.

If you want to proceed, you need to register or log in first and then back Steam Spy on Patreon. Look for Indie or Pro pledge.

Don't forget to use the same email as on Steam Spy!

User reviews:

Login required.

Please register or log in to see this information.